createdAt,value
2023-06-28T00:00:10.982Z,100546.53
2023-06-28T00:02:38.357Z,100539.00
2023-06-28T00:05:12.102Z,100547.25
2023-06-28T00:07:38.949Z,100536.13
2023-06-28T00:10:11.238Z,100543.97
2023-06-28T00:12:37.790Z,100551.09
2023-06-28T00:15:04.879Z,100539.41
2023-06-28T00:17:31.431Z,100547.19
2023-06-28T00:20:01.128Z,100540.28
2023-06-28T00:22:32.039Z,100551.22
2023-06-28T00:25:06.177Z,100554.34
2023-06-28T00:27:33.590Z,100558.59
2023-06-28T00:30:00.649Z,100550.19
2023-06-28T00:32:29.962Z,100565.88
2023-06-28T00:34:56.992Z,100555.00
2023-06-28T00:37:24.919Z,100562.63
2023-06-28T00:39:53.541Z,100571.38
2023-06-28T00:42:20.262Z,100562.88
2023-06-28T00:44:49.925Z,100575.69
2023-06-28T00:47:17.084Z,100561.78
2023-06-28T00:49:44.477Z,100567.03
2023-06-28T00:52:12.451Z,100568.97
2023-06-28T00:54:39.372Z,100569.84
2023-06-28T00:57:06.297Z,100569.97
2023-06-28T00:59:33.054Z,100551.94
2023-06-28T01:01:59.860Z,100577.78
2023-06-28T01:04:29.145Z,100566.41
2023-06-28T01:07:01.351Z,100575.22
2023-06-28T01:09:30.601Z,100573.78
2023-06-28T01:11:58.238Z,100581.56
2023-06-28T01:14:27.130Z,100571.91
2023-06-28T01:16:57.258Z,100564.63
2023-06-28T01:19:27.809Z,100585.50
2023-06-28T01:22:06.836Z,100571.69
2023-06-28T01:24:33.791Z,100575.72
2023-06-28T01:27:00.827Z,100566.09
2023-06-28T01:29:27.558Z,100582.81
2023-06-28T01:31:55.949Z,100579.00
2023-06-28T01:34:24.004Z,100575.47
2023-06-28T01:36:52.359Z,100572.06
2023-06-28T01:39:20.365Z,100578.31
2023-06-28T01:41:47.983Z,100584.25
2023-06-28T01:44:15.880Z,100566.09
2023-06-28T01:46:44.335Z,100574.34
2023-06-28T01:49:11.677Z,100564.34
2023-06-28T01:51:42.692Z,100562.25
2023-06-28T01:54:09.610Z,100569.44
2023-06-28T01:56:39.069Z,100571.75
2023-06-28T01:59:06.051Z,100577.38
2023-06-28T02:01:32.899Z,100574.81
2023-06-28T02:03:59.760Z,100573.38
2023-06-28T02:06:28.143Z,100580.31
2023-06-28T02:08:54.687Z,100563.59
2023-06-28T02:11:21.405Z,100576.06
2023-06-28T02:13:49.504Z,100572.31
2023-06-28T02:16:16.572Z,100575.84
2023-06-28T02:18:46.216Z,100577.31
2023-06-28T02:21:13.289Z,100579.41
2023-06-28T02:23:39.786Z,100585.50
2023-06-28T02:26:06.647Z,100571.81
2023-06-28T02:28:33.153Z,100576.34
2023-06-28T02:31:00.098Z,100579.75
2023-06-28T02:33:26.856Z,100562.91
2023-06-28T02:35:54.868Z,100577.94
2023-06-28T02:38:21.433Z,100578.53
2023-06-28T02:40:48.132Z,100579.84
2023-06-28T02:43:14.678Z,100580.84
2023-06-28T02:45:43.249Z,100582.28
2023-06-28T02:48:11.384Z,100581.56
2023-06-28T02:50:38.934Z,100578.91
2023-06-28T02:53:06.011Z,100574.19
2023-06-28T02:55:32.559Z,100589.16
2023-06-28T02:57:59.521Z,100585.03
2023-06-28T03:00:29.595Z,100579.28
2023-06-28T03:02:56.711Z,100574.38
2023-06-28T03:05:23.596Z,100574.25
2023-06-28T03:07:51.197Z,100586.09
2023-06-28T03:10:17.977Z,100566.34
2023-06-28T03:12:45.067Z,100569.38
2023-06-28T03:15:11.809Z,100581.97
2023-06-28T03:17:39.382Z,100581.09
2023-06-28T03:20:07.348Z,100590.38
2023-06-28T03:22:35.653Z,100581.34
2023-06-28T03:25:03.669Z,100589.50
2023-06-28T03:27:30.466Z,100565.84
2023-06-28T03:29:57.439Z,100594.31
2023-06-28T03:32:24.261Z,100588.31
2023-06-28T03:34:51.120Z,100589.41
2023-06-28T03:37:18.405Z,100587.59
2023-06-28T03:39:44.929Z,100564.78
2023-06-28T03:42:11.613Z,100584.53
2023-06-28T03:44:39.679Z,100585.03
2023-06-28T03:47:06.679Z,100586.97
2023-06-28T03:49:34.572Z,100592.22
2023-06-28T03:52:01.174Z,100589.31
2023-06-28T03:54:27.715Z,100594.28
2023-06-28T03:56:54.493Z,100593.31
2023-06-28T03:59:21.208Z,100590.16
2023-06-28T04:01:52.217Z,100592.13
2023-06-28T04:04:19.264Z,100588.94
2023-06-28T04:06:46.587Z,100599.66
2023-06-28T04:09:19.046Z,100584.03
2023-06-28T04:11:45.837Z,100590.25
2023-06-28T04:14:12.452Z,100579.41
2023-06-28T04:16:40.627Z,100588.31
2023-06-28T04:19:07.209Z,100599.66
2023-06-28T04:21:34.247Z,100595.38
2023-06-28T04:24:05.544Z,100606.13
2023-06-28T04:26:32.076Z,100612.34
2023-06-28T04:29:00.358Z,100601.09
2023-06-28T04:31:28.867Z,100612.84
2023-06-28T04:33:58.956Z,100601.09
2023-06-28T04:36:26.907Z,100591.13
2023-06-28T04:38:56.022Z,100605.75
2023-06-28T04:41:24.176Z,100613.78
2023-06-28T04:43:55.957Z,100614.88
2023-06-28T04:46:28.149Z,100606.25
2023-06-28T04:48:56.912Z,100609.16
2023-06-28T04:51:23.921Z,100603.78
2023-06-28T04:53:51.459Z,100615.25
2023-06-28T04:56:22.226Z,100613.31
2023-06-28T04:58:49.410Z,100600.59
2023-06-28T05:01:19.128Z,100592.94
2023-06-28T05:03:50.181Z,100596.47
2023-06-28T05:06:17.145Z,100602.31
2023-06-28T05:08:44.023Z,100611.22
2023-06-28T05:11:13.770Z,100590.50
2023-06-28T05:13:41.973Z,100610.13
2023-06-28T05:16:11.206Z,100609.03
2023-06-28T05:18:37.924Z,100604.66
2023-06-28T05:21:04.893Z,100603.06
2023-06-28T05:23:31.515Z,100599.91
2023-06-28T05:25:59.087Z,100609.78
2023-06-28T05:28:27.162Z,100611.38
2023-06-28T05:30:54.480Z,100605.28
2023-06-28T05:33:21.564Z,100616.00
2023-06-28T05:35:50.072Z,100611.72
2023-06-28T05:38:22.801Z,100624.19
2023-06-28T05:40:56.270Z,100618.06
2023-06-28T05:43:23.773Z,100619.19
2023-06-28T05:45:51.374Z,100609.31
2023-06-28T05:48:18.081Z,100614.16
2023-06-28T05:50:47.771Z,100621.75
2023-06-28T05:53:14.729Z,100619.53
2023-06-28T05:55:41.281Z,100609.91
2023-06-28T05:58:08.500Z,100614.06
2023-06-28T06:00:35.238Z,100623.81
2023-06-28T06:03:02.866Z,100626.16
2023-06-28T06:05:30.365Z,100623.34
2023-06-28T06:07:59.277Z,100620.16
2023-06-28T06:10:26.343Z,100627.84
2023-06-28T06:12:54.347Z,100631.28
2023-06-28T06:15:22.693Z,100618.94
2023-06-28T06:17:54.086Z,100625.91
2023-06-28T06:20:20.887Z,100616.16
2023-06-28T06:22:47.480Z,100626.16
2023-06-28T06:25:14.841Z,100618.84
2023-06-28T06:27:42.004Z,100627.25
2023-06-28T06:30:11.981Z,100629.19
2023-06-28T06:32:39.323Z,100626.97
2023-06-28T06:35:08.866Z,100625.88
2023-06-28T06:37:35.355Z,100631.97
2023-06-28T06:40:01.855Z,100637.59
2023-06-28T06:42:28.703Z,100628.94
2023-06-28T06:44:56.320Z,100635.19
2023-06-28T06:47:23.002Z,100636.28
2023-06-28T06:49:49.627Z,100637.00
2023-06-28T06:52:16.342Z,100635.28
2023-06-28T06:54:43.382Z,100626.97
2023-06-28T06:57:10.111Z,100636.03
2023-06-28T06:59:37.455Z,100637.88
2023-06-28T07:02:04.554Z,100645.69
2023-06-28T07:04:33.242Z,100643.25
2023-06-28T07:07:03.948Z,100647.75
2023-06-28T07:09:32.621Z,100646.38
2023-06-28T07:11:59.803Z,100657.88
2023-06-28T07:14:26.542Z,100657.41
2023-06-28T07:16:53.288Z,100651.75
2023-06-28T07:19:20.094Z,100652.00
2023-06-28T07:21:46.762Z,100651.06
2023-06-28T07:24:13.572Z,100628.94
2023-06-28T07:26:41.207Z,100633.59
2023-06-28T07:29:08.222Z,100646.41
2023-06-28T07:31:34.846Z,100644.31
2023-06-28T07:34:06.104Z,100642.72
2023-06-28T07:36:34.092Z,100637.63
2023-06-28T07:39:03.409Z,100653.63
2023-06-28T07:41:30.159Z,100647.84
2023-06-28T07:43:56.763Z,100641.91
2023-06-28T07:46:23.421Z,100633.59
2023-06-28T07:48:52.655Z,100629.69
2023-06-28T07:51:19.762Z,100643.63
2023-06-28T07:53:47.517Z,100640.78
2023-06-28T07:56:14.871Z,100630.31
2023-06-28T07:58:41.795Z,100628.22
2023-06-28T08:01:10.067Z,100630.69
2023-06-28T08:03:36.961Z,100624.16
2023-06-28T08:06:11.079Z,100625.78
2023-06-28T08:08:38.287Z,100627.97
2023-06-28T08:11:04.832Z,100630.69
2023-06-28T08:13:33.497Z,100622.44
2023-06-28T08:16:00.060Z,100619.56
2023-06-28T08:18:28.724Z,100636.63
2023-06-28T08:20:55.232Z,100627.84
2023-06-28T08:23:24.360Z,100633.94
2023-06-28T08:25:52.265Z,100634.50
2023-06-28T08:28:19.090Z,100623.84
2023-06-28T08:30:46.014Z,100634.78
2023-06-28T08:33:14.042Z,100625.09
2023-06-28T08:35:40.905Z,100629.81
2023-06-28T08:38:13.159Z,100623.72
2023-06-28T08:40:40.350Z,100625.97
2023-06-28T08:43:08.407Z,100633.53
2023-06-28T08:45:35.418Z,100639.13
2023-06-28T08:48:27.991Z,100631.66
2023-06-28T08:50:59.278Z,100631.53
2023-06-28T08:53:42.334Z,100616.69
2023-06-28T08:56:08.881Z,100628.13
2023-06-28T08:58:36.372Z,100621.81
2023-06-28T09:01:03.584Z,100625.28
2023-06-28T09:03:35.243Z,100642.09
2023-06-28T09:06:03.185Z,100635.13
2023-06-28T09:08:30.842Z,100622.16
2023-06-28T09:10:59.791Z,100618.03
2023-06-28T09:13:27.571Z,100626.53
2023-06-28T09:15:56.332Z,100629.53
2023-06-28T09:18:25.072Z,100623.06
2023-06-28T09:20:54.146Z,100633.97
2023-06-28T09:23:26.655Z,100622.28
2023-06-28T09:25:55.907Z,100630.63
2023-06-28T09:28:34.839Z,100621.31
2023-06-28T09:31:02.544Z,100637.81
2023-06-28T09:33:29.465Z,100632.09
2023-06-28T09:35:57.428Z,100636.38
2023-06-28T09:38:27.131Z,100638.19
2023-06-28T09:40:59.813Z,100641.41
2023-06-28T09:43:32.569Z,100633.91
2023-06-28T09:46:11.784Z,100624.31
2023-06-28T09:48:42.776Z,100646.84
2023-06-28T09:51:12.579Z,100652.22
2023-06-28T09:53:57.636Z,100648.38
2023-06-28T09:56:40.519Z,100649.50
2023-06-28T09:59:12.645Z,100637.31
2023-06-28T10:01:44.117Z,100639.13
2023-06-28T10:04:14.382Z,100642.25
2023-06-28T10:06:42.434Z,100649.75
2023-06-28T10:09:09.319Z,100640.19
2023-06-28T10:11:43.608Z,100628.03
2023-06-28T10:14:15.037Z,100630.44
2023-06-28T10:16:43.135Z,100635.22
2023-06-28T10:19:12.719Z,100638.22
2023-06-28T10:21:42.145Z,100645.28
2023-06-28T10:24:10.019Z,100636.34
2023-06-28T10:26:37.407Z,100628.22
2023-06-28T10:29:08.502Z,100634.13
2023-06-28T10:31:37.554Z,100621.69
2023-06-28T10:34:06.089Z,100627.00
2023-06-28T10:36:34.391Z,100630.38
2023-06-28T10:39:01.101Z,100639.00
2023-06-28T10:41:31.753Z,100633.84
2023-06-28T10:44:08.693Z,100632.31
2023-06-28T10:46:38.070Z,100614.34
2023-06-28T10:49:05.017Z,100619.56
2023-06-28T10:51:34.245Z,100612.94
2023-06-28T10:54:15.101Z,100622.06
2023-06-28T10:56:48.200Z,100612.75
2023-06-28T10:59:14.972Z,100601.19
2023-06-28T11:01:51.058Z,100608.91
2023-06-28T11:04:27.159Z,100598.31
2023-06-28T11:07:20.017Z,100604.19
2023-06-28T11:10:18.728Z,100607.69
2023-06-28T11:12:49.231Z,100597.69
2023-06-28T11:15:16.030Z,100606.22
2023-06-28T11:17:43.534Z,100608.56
2023-06-28T11:20:17.520Z,100599.28
2023-06-28T11:22:54.869Z,100597.63
2023-06-28T11:25:29.204Z,100608.94
2023-06-28T11:27:59.374Z,100611.53
2023-06-28T11:30:49.052Z,100615.59
2023-06-28T11:33:23.240Z,100589.97
2023-06-28T11:35:55.513Z,100601.38
2023-06-28T11:38:23.174Z,100591.84
2023-06-28T11:40:49.884Z,100580.88
2023-06-28T11:43:21.993Z,100594.88
2023-06-28T11:45:52.280Z,100596.16
2023-06-28T11:48:19.291Z,100588.28
2023-06-28T11:50:46.396Z,100581.84
2023-06-28T11:53:13.467Z,100590.72
2023-06-28T11:55:41.509Z,100573.41
2023-06-28T11:58:08.623Z,100578.31
2023-06-28T12:00:42.600Z,100589.06
2023-06-28T12:03:09.201Z,100576.63
2023-06-28T12:05:36.970Z,100581.34
2023-06-28T12:08:04.095Z,100585.91
2023-06-28T12:10:38.194Z,100573.94
2023-06-28T12:13:05.059Z,100589.16
2023-06-28T12:15:32.167Z,100580.47
2023-06-28T12:17:58.923Z,100589.22
2023-06-28T12:20:26.861Z,100591.13
2023-06-28T12:22:57.966Z,100584.44
2023-06-28T12:25:32.175Z,100578.81
2023-06-28T12:28:06.026Z,100583.38
2023-06-28T12:30:34.887Z,100569.28
2023-06-28T12:33:10.022Z,100572.00
2023-06-28T12:35:36.741Z,100564.66
2023-06-28T12:38:05.108Z,100550.91
2023-06-28T12:40:38.832Z,100559.88
2023-06-28T12:43:11.884Z,100559.78
2023-06-28T12:45:57.403Z,100551.97
2023-06-28T12:48:27.493Z,100550.03
2023-06-28T12:50:58.357Z,100564.09
2023-06-28T12:53:25.174Z,100560.28
2023-06-28T12:55:51.793Z,100549.84
2023-06-28T12:58:20.344Z,100547.19
2023-06-28T13:00:48.988Z,100545.56
2023-06-28T13:03:15.702Z,100546.91
2023-06-28T13:05:43.354Z,100546.13
2023-06-28T13:08:15.002Z,100542.88
2023-06-28T13:10:44.851Z,100546.06
2023-06-28T13:13:11.685Z,100535.19
2023-06-28T13:15:41.270Z,100534.63
2023-06-28T13:18:08.732Z,100532.69
2023-06-28T13:20:35.920Z,100534.59
2023-06-28T13:23:03.597Z,100540.34
2023-06-28T13:25:30.288Z,100534.63
2023-06-28T13:27:57.124Z,100532.50
2023-06-28T13:30:23.925Z,100524.44
2023-06-28T13:32:51.629Z,100521.81
2023-06-28T13:35:18.416Z,100516.44
2023-06-28T13:37:46.309Z,100515.56
2023-06-28T13:40:13.675Z,100517.44
2023-06-28T13:42:40.467Z,100509.13
2023-06-28T13:45:07.591Z,100521.16
2023-06-28T13:47:34.860Z,100516.09
2023-06-28T13:50:06.271Z,100511.34
2023-06-28T13:52:33.673Z,100514.03
2023-06-28T13:55:02.888Z,100519.47
2023-06-28T13:57:30.509Z,100518.09
2023-06-28T13:59:58.754Z,100514.19
2023-06-28T14:02:27.527Z,100513.34
2023-06-28T14:04:54.285Z,100509.28
2023-06-28T14:07:23.624Z,100505.88
2023-06-28T14:09:50.500Z,100507.59
2023-06-28T14:12:17.109Z,100498.09
2023-06-28T14:14:43.953Z,100493.69
2023-06-28T14:17:10.746Z,100484.38
2023-06-28T14:19:37.391Z,100493.19
2023-06-28T14:22:04.354Z,100490.47
2023-06-28T14:24:31.170Z,100490.47
2023-06-28T14:26:57.761Z,100486.69
2023-06-28T14:29:24.624Z,100448.88
2023-06-28T14:31:51.414Z,100476.03
2023-06-28T14:34:18.464Z,100476.34
2023-06-28T14:36:45.278Z,100475.88
2023-06-28T14:39:11.875Z,100473.84
2023-06-28T14:41:38.915Z,100479.09
2023-06-28T14:44:05.742Z,100474.19
2023-06-28T14:46:32.344Z,100473.19
2023-06-28T14:48:59.979Z,100479.41
2023-06-28T14:51:26.510Z,100477.03
2023-06-28T14:53:54.723Z,100474.38
2023-06-28T14:56:21.725Z,100483.00
2023-06-28T14:58:49.580Z,100483.50
2023-06-28T15:01:17.643Z,100480.31
2023-06-28T15:03:44.595Z,100485.22
2023-06-28T15:06:12.572Z,100480.44
2023-06-28T15:08:39.243Z,100470.97
2023-06-28T15:11:06.026Z,100473.97
2023-06-28T15:13:34.119Z,100486.47
2023-06-28T15:16:01.932Z,100482.38
2023-06-28T15:18:30.415Z,100466.28
2023-06-28T15:20:58.400Z,100469.31
2023-06-28T15:23:25.217Z,100473.66
2023-06-28T15:25:52.066Z,100471.53
2023-06-28T15:28:18.892Z,100476.47
2023-06-28T15:30:48.130Z,100474.78
2023-06-28T15:33:15.329Z,100471.03
2023-06-28T15:35:47.219Z,100465.28
2023-06-28T15:38:14.077Z,100466.16
2023-06-28T15:40:40.807Z,100460.88
2023-06-28T15:43:08.358Z,100467.00
2023-06-28T15:45:35.156Z,100458.50
2023-06-28T15:48:01.729Z,100459.03
2023-06-28T15:50:28.653Z,100457.50
2023-06-28T15:52:55.793Z,100469.09
2023-06-28T15:55:26.023Z,100457.22
2023-06-28T15:57:53.313Z,100464.34
2023-06-28T16:00:21.410Z,100460.28
2023-06-28T16:02:53.805Z,100455.19
2023-06-28T16:05:22.227Z,100450.44
2023-06-28T16:07:50.570Z,100446.72
2023-06-28T16:10:17.671Z,100448.75
2023-06-28T16:12:44.700Z,100451.44
2023-06-28T16:15:12.742Z,100443.13
2023-06-28T16:17:41.649Z,100441.75
2023-06-28T16:20:09.386Z,100447.94
2023-06-28T16:22:36.735Z,100429.94
2023-06-28T16:25:04.361Z,100441.50
2023-06-28T16:27:31.253Z,100431.19
2023-06-28T16:29:58.521Z,100440.00
2023-06-28T16:32:25.552Z,100439.53
2023-06-28T16:34:52.404Z,100445.09
2023-06-28T16:37:19.447Z,100432.69
2023-06-28T16:39:46.326Z,100431.97
2023-06-28T16:42:13.697Z,100438.75
2023-06-28T16:44:40.487Z,100441.94
2023-06-28T16:47:07.219Z,100445.72
2023-06-28T16:49:34.015Z,100443.38
2023-06-28T16:52:01.970Z,100422.13
2023-06-28T16:54:28.985Z,100436.72
2023-06-28T16:56:55.770Z,100432.09
2023-06-28T16:59:22.511Z,100432.63
2023-06-28T17:01:50.741Z,100432.13
2023-06-28T17:04:17.504Z,100440.75
2023-06-28T17:06:44.757Z,100428.84
2023-06-28T17:09:12.378Z,100428.22
2023-06-28T17:11:39.111Z,100421.44
2023-06-28T17:14:08.227Z,100434.66
2023-06-28T17:16:41.167Z,100435.34
2023-06-28T17:19:07.822Z,100435.50
2023-06-28T17:21:35.941Z,100443.47
2023-06-28T17:24:02.731Z,100444.16
2023-06-28T17:26:31.971Z,100452.94
2023-06-28T17:29:00.837Z,100449.66
2023-06-28T17:31:30.876Z,100434.91
2023-06-28T17:33:57.454Z,100433.53
2023-06-28T17:36:25.332Z,100440.28
2023-06-28T17:38:51.926Z,100443.47
2023-06-28T17:41:18.657Z,100440.91
2023-06-28T17:43:47.369Z,100439.81
2023-06-28T17:46:14.108Z,100446.19
2023-06-28T17:48:40.727Z,100443.47
2023-06-28T17:51:09.432Z,100438.22
2023-06-28T17:53:37.755Z,100453.78
2023-06-28T17:56:05.185Z,100441.16
2023-06-28T17:58:32.353Z,100445.41
2023-06-28T18:00:59.098Z,100442.03
2023-06-28T18:03:26.143Z,100440.47
2023-06-28T18:05:52.729Z,100453.31
2023-06-28T18:08:21.191Z,100446.28
2023-06-28T18:10:48.361Z,100447.44
2023-06-28T18:13:15.170Z,100453.09
2023-06-28T18:15:43.221Z,100461.91
2023-06-28T18:18:10.240Z,100463.34
2023-06-28T18:20:41.651Z,100456.34
2023-06-28T18:23:08.393Z,100464.78
2023-06-28T18:25:35.445Z,100466.25
2023-06-28T18:28:01.955Z,100479.09
2023-06-28T18:30:28.973Z,100464.34
2023-06-28T18:32:55.887Z,100471.44
2023-06-28T18:35:23.312Z,100474.16
2023-06-28T18:37:50.178Z,100475.16
2023-06-28T18:40:17.035Z,100470.75
2023-06-28T18:42:45.293Z,100476.53
2023-06-28T18:45:12.439Z,100469.59
2023-06-28T18:47:39.112Z,100462.25
2023-06-28T18:50:06.455Z,100461.38
2023-06-28T18:52:33.003Z,100474.69
2023-06-28T18:54:59.823Z,100474.19
2023-06-28T18:57:27.388Z,100463.19
2023-06-28T18:59:53.956Z,100472.13
2023-06-28T19:02:21.248Z,100468.19
2023-06-28T19:04:48.073Z,100464.09
2023-06-28T19:07:16.065Z,100460.38
2023-06-28T19:09:44.954Z,100454.28
2023-06-28T19:12:14.245Z,100451.06
2023-06-28T19:14:41.503Z,100455.06
2023-06-28T19:17:09.023Z,100453.81
2023-06-28T19:19:35.736Z,100461.09
2023-06-28T19:22:02.310Z,100459.88
2023-06-28T19:24:31.732Z,100443.59
2023-06-28T19:26:59.176Z,100457.66
2023-06-28T19:29:26.133Z,100446.53
2023-06-28T19:31:54.999Z,100464.59
2023-06-28T19:34:22.054Z,100459.78
2023-06-28T19:36:51.649Z,100435.34
2023-06-28T19:39:19.159Z,100457.34
2023-06-28T19:41:45.936Z,100459.09
2023-06-28T19:44:12.656Z,100466.66
2023-06-28T19:46:40.444Z,100469.06
2023-06-28T19:49:07.074Z,100470.09
2023-06-28T19:51:35.559Z,100477.47
2023-06-28T19:54:02.328Z,100461.19
2023-06-28T19:56:30.384Z,100467.16
2023-06-28T19:59:03.344Z,100462.38
2023-06-28T20:01:34.626Z,100473.47
2023-06-28T20:04:01.618Z,100472.88
2023-06-28T20:06:34.625Z,100464.66
2023-06-28T20:09:08.843Z,100481.69
2023-06-28T20:11:38.505Z,100480.31
2023-06-28T20:14:06.166Z,100484.28
2023-06-28T20:16:35.570Z,100490.97
2023-06-28T20:19:02.116Z,100484.47
2023-06-28T20:21:29.791Z,100483.03
2023-06-28T20:23:58.875Z,100477.66
2023-06-28T20:26:25.585Z,100472.56
2023-06-28T20:28:53.214Z,100482.22
2023-06-28T20:31:19.891Z,100484.06
2023-06-28T20:33:47.534Z,100478.63
2023-06-28T20:36:14.443Z,100479.75
2023-06-28T20:38:40.980Z,100495.25
2023-06-28T20:41:08.352Z,100484.28
2023-06-28T20:43:38.666Z,100493.09
2023-06-28T20:46:06.191Z,100493.66
2023-06-28T20:48:33.696Z,100479.88
2023-06-28T20:51:03.932Z,100495.19
2023-06-28T20:53:31.601Z,100497.47
2023-06-28T20:55:58.354Z,100493.34
2023-06-28T20:58:25.103Z,100497.03
2023-06-28T21:00:51.674Z,100496.19
2023-06-28T21:03:18.435Z,100489.09
2023-06-28T21:05:49.288Z,100495.88
2023-06-28T21:08:16.047Z,100496.59
2023-06-28T21:10:42.876Z,100502.97
2023-06-28T21:13:09.966Z,100485.94
2023-06-28T21:15:36.512Z,100498.28
2023-06-28T21:18:03.270Z,100502.25
2023-06-28T21:20:30.084Z,100488.75
2023-06-28T21:22:56.671Z,100488.63
2023-06-28T21:25:23.255Z,100490.13
2023-06-28T21:27:49.927Z,100490.97
2023-06-28T21:30:19.258Z,100491.25
2023-06-28T21:32:48.574Z,100473.22
2023-06-28T21:35:16.731Z,100476.03
2023-06-28T21:37:44.049Z,100481.84
2023-06-28T21:40:11.383Z,100485.25
2023-06-28T21:42:38.062Z,100489.19
2023-06-28T21:45:04.916Z,100489.50
2023-06-28T21:47:31.693Z,100483.91
2023-06-28T21:49:58.513Z,100493.84
2023-06-28T21:52:26.796Z,100489.50
2023-06-28T21:54:54.123Z,100498.00
2023-06-28T21:57:23.743Z,100496.75
2023-06-28T21:59:50.414Z,100484.66
2023-06-28T22:02:17.464Z,100490.63
2023-06-28T22:04:44.480Z,100491.59
2023-06-28T22:07:11.549Z,100491.53
2023-06-28T22:09:38.380Z,100491.50
2023-06-28T22:12:06.182Z,100483.09
2023-06-28T22:14:33.157Z,100487.78
2023-06-28T22:16:59.886Z,100497.25
2023-06-28T22:19:27.890Z,100480.22
2023-06-28T22:21:57.872Z,100488.84
2023-06-28T22:24:24.434Z,100486.56
2023-06-28T22:26:53.495Z,100487.81
2023-06-28T22:29:20.261Z,100485.00
2023-06-28T22:31:47.951Z,100492.34
2023-06-28T22:34:18.269Z,100484.63
2023-06-28T22:36:48.325Z,100486.38
2023-06-28T22:39:15.412Z,100482.91
2023-06-28T22:41:41.854Z,100473.22
2023-06-28T22:44:12.055Z,100476.28
2023-06-28T22:46:38.844Z,100488.00
2023-06-28T22:49:05.711Z,100476.38
2023-06-28T22:51:42.503Z,100485.00
2023-06-28T22:54:14.685Z,100488.38
2023-06-28T22:56:45.333Z,100483.63
2023-06-28T22:59:13.097Z,100476.13
2023-06-28T23:01:42.182Z,100480.03
2023-06-28T23:04:08.820Z,100483.25
2023-06-28T23:06:40.129Z,100481.34
2023-06-28T23:09:06.936Z,100482.13
2023-06-28T23:11:34.907Z,100475.56
2023-06-28T23:14:02.278Z,100479.47
2023-06-28T23:16:29.056Z,100479.59
2023-06-28T23:18:56.347Z,100479.75
2023-06-28T23:21:26.408Z,100473.38
2023-06-28T23:23:55.873Z,100474.09
2023-06-28T23:26:27.935Z,100473.13
2023-06-28T23:28:55.565Z,100472.88
2023-06-28T23:31:22.614Z,100469.44
2023-06-28T23:33:49.653Z,100449.00
2023-06-28T23:36:16.653Z,100470.44
2023-06-28T23:38:43.329Z,100468.84
2023-06-28T23:41:09.866Z,100468.41
2023-06-28T23:43:37.188Z,100465.59
2023-06-28T23:46:07.151Z,100480.44
2023-06-28T23:48:36.347Z,100462.66
2023-06-28T23:51:10.202Z,100470.97
2023-06-28T23:53:39.873Z,100473.09
2023-06-28T23:56:07.807Z,100473.91
2023-06-28T23:58:37.493Z,100470.63
